Terminal Aerodrome Forecast
Issued by NWS

Home | Current Version | Previous Version | Text Only | Print | Product List | Glossary On
Versions: 1 2 3 4 5 6 7 8 9 10 11 12 13 14 15
000
FTUS46 KOTX 181139
TAFMWH
TAF
KMWH 181139Z 1812/1912 26013KT P6SM SKC
     FM181600 26015G23KT P6SM SKC
     FM182000 27012G19KT P6SM SKC
     FM182300 27010KT P6SM FEW250
     FM190600 01004KT P6SM BKN200=

USA.gov is the U.S. government's official web portal to all federal, state and local government web resources and services.